Terminal Aerodrome Forecast
Issued by NWS Cleveland, OH

Home | Current Version | Previous Version | Graphics & Text | Print | Product List | Glossary On
Versions: 1 2 3 4 5 6 7 8 9 10 11 12 13 14 15 16 17 18 19 20 21 22 23 24 25 26 27
696
FTUS41 KCLE 230529
TAFCLE
TAF
KCLE 230529Z 2306/2412 16004KT P6SM SKC
     FM231500 21007KT P6SM SCT035
     FM232100 36007KT P6SM SCT045
     FM240100 17005KT P6SM SCT250=

USA.gov is the U.S. government's official web portal to all federal, state and local government web resources and services.